Castlegar/West Kootenay Regional Airport
CYCG : now visible

Airfield :











YOU CAN JOIN US ON...

 
LOGIN :

Register | Disclaimer

   EN    FR    IT 

 









Legend :    VFR   Marginal VFR   IFR   Intensive IFR   Very Intensive IFR
Visi :
Ceiling :
>= 8 km
>= 3000ft
5 to 8 km
1000 to 3000 ft
1500m to 5 km
500 to 1000 ft
800 to 1500m
200 to 500 ft
< 800m
< 200 ft
Symbols :   Thunderstorms  Fog  Heavy snow  Heavy precipitations  Wind > 20 kt






- Airport Elevation : 1624 ft
- IATA code : YCG


CYCG - Castlegar/West Kootenay Regional

EXPIRED METARs :
  • 260100Z VRB02KT 15SM -RA FEW005 FEW018 SCT033 BKN043 BKN062 14/13 A2998 RMK SF1SC1SC1SC2SC2 LAST STFD OBS/NEXT 261300Z SLP158 DENSITY ALT 1900FT

TAF TAF CYCG
Valid from the 26 at 01:00 until the 26 at 04:00 UTC


260038Z 2601/2604 18005KT P6SM -RA SCT020 OVC040
TEMPO 2601/2604 5SM -RA BR OVC020 RMK NXT FCST WILL BE ISSUED AT 261445Z
CZVR FIR / North America



MET'MAP, your aeronautical weather chart ! - Copyright ORBIFLY December 2007 - Disclaimer

ORBIFLY MET'MAP TEAM :

Programming & Development : Alexandra Zaïnal
Concept & original design : Baudouin d'Aumeries
Assistance for programming : Marc-Olivier Méhu
Technical & hardware support : Manuel Goepfert

Contact : metmap@orbifly.com




SOURCES & CREDITS :

   NOAA       Earth
Advisory